Time;durP1;ratioP1;P1;durP2;ratioP2;P2;SDS_P1;SDS_P2;PMS_P1;PMS_P2;Temp;Humidity;BMP_temperature;BMP_pressure;BME280_temperature;BME280_humidity;BME280_pressure;Samples;Min_cycle;Max_cycle;Signal;HPM_P1;HPM_P2
2022/07/18 00:02:02;;;;;;;0.70;0.50;;;18.70;66.50;;;;;;5075785;28;20552;-83
2022/07/18 00:04:29;;;;;;;0.83;0.50;;;18.70;66.80;;;;;;5075518;28;20869;-82
2022/07/18 00:06:56;;;;;;;1.47;0.60;;;18.60;67.00;;;;;;5075556;28;20819;-82
2022/07/18 00:09:23;;;;;;;0.40;0.40;;;18.50;67.80;;;;;;5075591;28;20460;-82
2022/07/18 00:11:50;;;;;;;0.70;0.57;;;18.50;67.50;;;;;;5075284;28;20448;-83
2022/07/18 00:14:17;;;;;;;0.57;0.50;;;18.40;67.50;;;;;;5075611;28;20453;-83
2022/07/18 00:16:45;;;;;;;0.40;0.40;;;18.40;67.50;;;;;;5075502;28;20464;-82
2022/07/18 00:19:12;;;;;;;0.93;0.70;;;18.40;67.50;;;;;;5075405;28;20491;-82
2022/07/18 00:21:39;;;;;;;0.60;0.60;;;18.30;67.60;;;;;;5075443;28;20449;-82
2022/07/18 00:24:06;;;;;;;0.70;0.70;;;18.30;67.40;;;;;;5075381;28;20444;-82
2022/07/18 00:26:33;;;;;;;0.50;0.50;;;18.30;67.20;;;;;;5075265;28;20456;-82
2022/07/18 00:28:59;;;;;;;1.00;0.60;;;18.20;67.40;;;;;;5075342;28;20469;-82
2022/07/18 00:31:26;;;;;;;1.00;0.63;;;18.30;67.40;;;;;;5075360;28;20452;-82
2022/07/18 00:33:54;;;;;;;0.40;0.40;;;18.30;67.20;;;;;;5075005;28;20452;-82
2022/07/18 00:36:21;;;;;;;0.53;0.50;;;18.30;67.50;;;;;;5074973;28;20972;-82
2022/07/18 00:38:48;;;;;;;0.60;0.40;;;18.20;68.10;;;;;;5074657;28;20476;-82
2022/07/18 00:41:15;;;;;;;0.60;0.60;;;18.10;67.60;;;;;;5075140;28;20449;-83
2022/07/18 00:43:42;;;;;;;0.57;0.53;;;18.10;67.60;;;;;;5074777;28;20816;-82
2022/07/18 00:46:11;;;;;;;0.60;0.50;;;18.10;68.30;;;;;;5074738;28;20966;-82
2022/07/18 00:48:37;;;;;;;0.60;0.60;;;18.00;67.80;;;;;;5074823;28;20481;-82
2022/07/18 00:51:06;;;;;;;0.90;0.83;;;18.00;67.60;;;;;;5074904;28;20456;-82
2022/07/18 00:53:33;;;;;;;0.40;0.40;;;18.00;68.00;;;;;;5074904;28;20452;-82
2022/07/18 00:56:02;;;;;;;0.90;0.90;;;17.90;68.50;;;;;;5075359;28;20445;-82
2022/07/18 00:58:30;;;;;;;0.50;0.50;;;17.90;68.70;;;;;;5074387;28;20968;-82
2022/07/18 01:03:41;;;;;;;0.60;0.60;;;17.90;68.50;;;;;;5074774;28;20508;-82
2022/07/18 01:06:09;;;;;;;0.83;0.57;;;17.80;68.60;;;;;;5074338;28;20978;-82
2022/07/18 01:08:37;;;;;;;0.40;0.40;;;17.80;68.80;;;;;;5074145;28;20484;-82
2022/07/18 01:11:04;;;;;;;0.70;0.60;;;17.80;69.10;;;;;;5074563;28;20507;-82
2022/07/18 01:13:32;;;;;;;0.57;0.50;;;17.80;68.60;;;;;;5074464;28;20440;-82
2022/07/18 01:15:58;;;;;;;1.13;0.50;;;17.70;69.00;;;;;;5074398;28;20452;-83
2022/07/18 01:18:25;;;;;;;0.60;0.60;;;17.70;69.60;;;;;;5073729;28;20498;-83
2022/07/18 01:20:53;;;;;;;0.40;0.40;;;17.70;70.90;;;;;;5074332;28;20448;-82
2022/07/18 01:23:20;;;;;;;0.57;0.50;;;17.70;70.30;;;;;;5074376;28;20452;-82
2022/07/18 01:25:47;;;;;;;0.80;0.60;;;17.60;69.80;;;;;;5074277;28;20433;-82
2022/07/18 01:28:14;;;;;;;0.50;0.43;;;17.50;70.20;;;;;;5074061;28;20495;-83
2022/07/18 01:30:41;;;;;;;0.53;0.53;;;17.50;70.30;;;;;;5074158;28;20506;-82
2022/07/18 01:33:07;;;;;;;0.80;0.40;;;17.50;71.10;;;;;;5074111;28;20444;-82
2022/07/18 01:35:34;;;;;;;3.13;0.93;;;17.40;71.10;;;;;;5073748;28;20967;-82
2022/07/18 01:38:04;;;;;;;2.20;0.50;;;17.40;70.90;;;;;;5073432;28;21019;-82
2022/07/18 01:40:31;;;;;;;0.93;0.50;;;17.30;71.00;;;;;;5073970;28;20445;-82
2022/07/18 01:42:58;;;;;;;0.60;0.50;;;17.30;71.50;;;;;;5073581;28;20813;-82
2022/07/18 01:45:25;;;;;;;0.50;0.50;;;17.30;71.90;;;;;;5073590;28;20449;-82
2022/07/18 01:47:52;;;;;;;0.50;0.50;;;17.30;71.70;;;;;;5073702;28;20488;-82
2022/07/18 01:50:19;;;;;;;0.80;0.60;;;17.20;71.40;;;;;;5073806;28;20444;-82
2022/07/18 01:52:45;;;;;;;0.53;0.53;;;17.20;71.40;;;;;;5073777;28;20448;-82
2022/07/18 01:55:14;;;;;;;1.00;0.60;;;17.10;71.50;;;;;;5073728;28;20448;-81
2022/07/18 01:57:40;;;;;;;0.93;0.67;;;17.20;72.00;;;;;;5073659;28;20453;-82
2022/07/18 02:00:10;;;;;;;0.80;0.80;;;17.10;71.90;;;;;;5073668;28;20472;-82
2022/07/18 02:02:37;;;;;;;1.17;0.70;;;17.10;72.30;;;;;;5073615;28;20444;-82
2022/07/18 02:05:05;;;;;;;1.83;0.70;;;17.00;72.60;;;;;;5073570;28;20589;-83
2022/07/18 02:07:34;;;;;;;0.67;0.60;;;16.90;72.60;;;;;;5073437;28;20473;-83
2022/07/18 02:10:07;;;;;;;0.73;0.50;;;16.90;72.40;;;;;;5073560;28;20548;-82
2022/07/18 02:12:35;;;;;;;0.93;0.63;;;16.90;73.00;;;;;;5073928;28;20479;-82
2022/07/18 02:15:02;;;;;;;0.80;0.70;;;16.90;73.00;;;;;;5073795;28;20437;-82
2022/07/18 02:17:28;;;;;;;0.47;0.47;;;16.80;73.50;;;;;;5073416;28;20468;-82
2022/07/18 02:19:55;;;;;;;0.50;0.50;;;16.80;73.80;;;;;;5073508;28;20815;-83
2022/07/18 02:22:22;;;;;;;0.60;0.60;;;16.80;74.10;;;;;;5073453;28;20452;-83
2022/07/18 02:24:49;;;;;;;0.50;0.50;;;16.80;74.60;;;;;;5073116;28;20475;-82
2022/07/18 02:27:16;;;;;;;0.40;0.40;;;16.70;75.00;;;;;;5073268;28;20827;-82
2022/07/18 02:29:45;;;;;;;1.90;0.73;;;16.70;75.40;;;;;;5072955;28;20468;-82
2022/07/18 02:32:11;;;;;;;0.47;0.47;;;16.70;75.30;;;;;;5073346;28;20452;-82
2022/07/18 02:34:38;;;;;;;0.50;0.50;;;16.60;75.70;;;;;;5073350;28;20559;-82
2022/07/18 02:37:05;;;;;;;0.50;0.50;;;16.60;76.10;;;;;;5073017;28;20484;-82
2022/07/18 02:39:32;;;;;;;1.03;0.60;;;16.60;76.30;;;;;;5072904;28;21011;-82
2022/07/18 02:41:59;;;;;;;0.40;0.40;;;16.60;76.20;;;;;;5073209;28;20452;-82
2022/07/18 02:44:26;;;;;;;0.80;0.80;;;16.60;76.40;;;;;;5073041;28;20432;-82
2022/07/18 02:46:54;;;;;;;0.50;0.50;;;16.50;76.60;;;;;;5073149;28;20457;-82
2022/07/18 02:49:31;;;;;;;0.70;0.67;;;16.50;76.60;;;;;;5073028;28;20491;-82
2022/07/18 02:52:06;;;;;;;0.50;0.50;;;16.50;76.00;;;;;;5073176;28;20527;-82
2022/07/18 02:54:35;;;;;;;0.63;0.63;;;16.50;75.40;;;;;;5072963;28;20774;-82
2022/07/18 02:57:02;;;;;;;0.90;0.80;;;16.40;74.40;;;;;;5073090;28;20794;-82
2022/07/18 02:59:28;;;;;;;0.50;0.50;;;16.40;74.70;;;;;;5073046;28;20468;-82
2022/07/18 03:01:57;;;;;;;0.47;0.47;;;16.40;74.60;;;;;;5073057;28;20441;-82
2022/07/18 03:04:24;;;;;;;0.50;0.50;;;16.30;74.50;;;;;;5072664;28;20966;-82
2022/07/18 03:06:52;;;;;;;1.00;0.60;;;16.30;74.40;;;;;;5073813;28;20528;-82
2022/07/18 03:09:19;;;;;;;0.60;0.50;;;16.30;74.00;;;;;;5072541;28;20480;-82
2022/07/18 03:11:46;;;;;;;0.60;0.57;;;16.30;74.50;;;;;;5072974;28;20441;-82
2022/07/18 03:14:12;;;;;;;0.60;0.50;;;16.30;73.90;;;;;;5072922;28;20456;-82
2022/07/18 03:16:39;;;;;;;1.67;0.73;;;16.30;73.60;;;;;;5072922;28;20452;-82
2022/07/18 03:19:07;;;;;;;0.60;0.60;;;16.30;73.40;;;;;;5072548;28;20972;-82
2022/07/18 03:21:34;;;;;;;0.50;0.50;;;16.30;73.90;;;;;;5072549;28;20979;-82
2022/07/18 03:24:01;;;;;;;0.60;0.60;;;16.30;73.70;;;;;;5072905;28;20448;-82
2022/07/18 03:26:28;;;;;;;0.40;0.40;;;16.30;74.30;;;;;;5072585;28;20925;-82
2022/07/18 03:28:55;;;;;;;0.97;0.80;;;16.30;74.60;;;;;;5072414;28;20481;-82
2022/07/18 03:31:21;;;;;;;0.40;0.40;;;16.20;74.60;;;;;;5072747;28;20456;-82
2022/07/18 03:33:48;;;;;;;0.57;0.50;;;16.20;74.10;;;;;;5072711;28;20441;-82
2022/07/18 03:36:16;;;;;;;0.50;0.50;;;16.20;73.40;;;;;;5072680;28;20456;-82
2022/07/18 03:38:43;;;;;;;0.50;0.50;;;16.20;73.90;;;;;;5072163;28;20488;-82
2022/07/18 03:41:11;;;;;;;0.50;0.47;;;16.30;73.30;;;;;;5075097;28;20440;-82
2022/07/18 03:43:38;;;;;;;0.60;0.60;;;16.30;72.30;;;;;;5076252;28;20452;-82
2022/07/18 03:46:05;;;;;;;0.57;0.57;;;16.30;72.90;;;;;;5076214;28;20444;-82
2022/07/18 03:48:31;;;;;;;0.50;0.47;;;16.30;73.40;;;;;;5076001;28;20487;-82
2022/07/18 03:50:58;;;;;;;0.40;0.40;;;16.40;73.50;;;;;;5075783;28;20467;-82
2022/07/18 03:53:27;;;;;;;0.93;0.60;;;16.40;73.60;;;;;;5076049;28;20433;-82
2022/07/18 03:55:54;;;;;;;0.50;0.50;;;16.40;73.60;;;;;;5076031;28;20813;-82
2022/07/18 03:58:20;;;;;;;1.30;0.70;;;16.40;74.00;;;;;;5075897;28;20461;-82
2022/07/18 04:00:47;;;;;;;0.50;0.50;;;16.50;73.90;;;;;;5075620;28;20445;-82
2022/07/18 04:03:14;;;;;;;0.50;0.50;;;16.50;73.80;;;;;;5075913;28;20441;-82
2022/07/18 04:05:41;;;;;;;0.70;0.50;;;16.50;73.60;;;;;;5075838;28;20445;-82
2022/07/18 04:08:08;;;;;;;0.80;0.50;;;16.50;74.00;;;;;;5075652;28;20491;-82
2022/07/18 04:10:39;;;;;;;1.03;0.60;;;16.50;74.40;;;;;;5075769;28;20452;-82
2022/07/18 04:13:07;;;;;;;0.50;0.50;;;16.50;73.90;;;;;;5075757;28;20444;-83
2022/07/18 04:15:34;;;;;;;0.50;0.50;;;16.50;74.30;;;;;;5075392;28;20955;-83
2022/07/18 04:18:01;;;;;;;1.20;0.53;;;16.50;74.10;;;;;;5075258;28;20833;-82
2022/07/18 04:20:28;;;;;;;0.40;0.30;;;16.50;74.20;;;;;;5075591;28;20448;-82
2022/07/18 04:22:57;;;;;;;0.60;0.43;;;16.50;74.40;;;;;;5075224;28;20941;-82
2022/07/18 04:25:26;;;;;;;0.50;0.50;;;16.40;74.70;;;;;;5075491;28;20445;-83
2022/07/18 04:27:54;;;;;;;0.57;0.50;;;16.50;75.40;;;;;;5075101;28;20480;-83
2022/07/18 04:30:23;;;;;;;0.40;0.40;;;16.50;76.20;;;;;;5075410;28;20445;-83
2022/07/18 04:32:50;;;;;;;1.33;0.70;;;16.60;76.90;;;;;;5075345;28;20783;-82
2022/07/18 04:35:17;;;;;;;0.70;0.57;;;16.60;77.20;;;;;;5075286;28;20447;-82
2022/07/18 04:37:44;;;;;;;0.53;0.40;;;16.60;77.50;;;;;;5074875;28;20538;-82
2022/07/18 04:40:12;;;;;;;0.50;0.50;;;16.60;78.60;;;;;;5075149;28;20440;-83
2022/07/18 04:42:39;;;;;;;1.17;1.10;;;16.70;78.50;;;;;;5075143;28;20449;-83
2022/07/18 04:45:09;;;;;;;0.90;0.40;;;16.70;78.50;;;;;;5075104;28;20463;-83
2022/07/18 04:47:36;;;;;;;1.13;1.03;;;16.70;78.50;;;;;;5074677;28;20964;-82
2022/07/18 04:50:03;;;;;;;1.83;0.63;;;16.70;78.90;;;;;;5074894;28;20481;-83
2022/07/18 04:52:37;;;;;;;4.07;0.57;;;16.80;79.60;;;;;;5074603;28;20455;-83
2022/07/18 04:55:04;;;;;;;3.07;0.60;;;16.80;80.40;;;;;;5074599;28;20441;-82
2022/07/18 04:57:31;;;;;;;1.80;0.80;;;16.80;80.30;;;;;;5074761;28;20441;-83
2022/07/18 04:59:58;;;;;;;0.70;0.50;;;16.90;80.60;;;;;;5074788;28;20437;-83
2022/07/18 05:02:26;;;;;;;0.70;0.70;;;16.90;80.80;;;;;;5074453;28;20940;-83
2022/07/18 05:04:53;;;;;;;1.00;0.67;;;17.00;81.30;;;;;;5074651;28;20451;-82
2022/07/18 05:07:19;;;;;;;0.50;0.50;;;17.00;82.00;;;;;;5074331;28;20945;-82
2022/07/18 05:09:46;;;;;;;0.50;0.50;;;17.10;81.80;;;;;;5074497;28;20480;-82
2022/07/18 05:12:13;;;;;;;0.50;0.50;;;17.20;82.50;;;;;;5074288;28;20809;-82
2022/07/18 05:14:40;;;;;;;0.80;0.80;;;17.20;81.70;;;;;;5074486;28;20449;-82
2022/07/18 05:17:06;;;;;;;0.70;0.60;;;17.30;82.00;;;;;;5074450;28;20458;-82
2022/07/18 05:19:35;;;;;;;1.00;0.60;;;17.30;82.80;;;;;;5074044;28;20468;-82
2022/07/18 05:22:02;;;;;;;0.60;0.60;;;17.30;83.20;;;;;;5074175;28;20449;-82
2022/07/18 05:24:29;;;;;;;0.67;0.67;;;17.40;82.70;;;;;;5074328;28;20451;-83
2022/07/18 05:26:55;;;;;;;1.17;1.07;;;17.40;81.60;;;;;;5074236;28;20485;-83
2022/07/18 05:29:22;;;;;;;0.63;0.60;;;17.50;81.60;;;;;;5074018;28;20489;-82
2022/07/18 05:31:49;;;;;;;0.50;0.50;;;17.60;81.90;;;;;;5074123;28;20444;-83
2022/07/18 05:34:16;;;;;;;0.80;0.67;;;17.60;82.20;;;;;;5074143;28;20449;-83
2022/07/18 05:36:44;;;;;;;0.93;0.50;;;17.70;81.40;;;;;;5074012;28;20518;-83
2022/07/18 05:39:10;;;;;;;0.80;0.60;;;17.80;80.70;;;;;;5073964;28;20457;-82
2022/07/18 05:41:37;;;;;;;1.50;0.60;;;17.90;80.60;;;;;;5073629;28;20451;-83
2022/07/18 05:44:04;;;;;;;0.70;0.70;;;18.00;81.20;;;;;;5073963;28;20445;-82
2022/07/18 05:46:31;;;;;;;0.57;0.57;;;18.10;81.00;;;;;;5073886;28;20452;-83
2022/07/18 05:48:58;;;;;;;1.57;1.10;;;18.20;80.40;;;;;;5073716;28;20489;-83
2022/07/18 05:51:25;;;;;;;0.50;0.50;;;18.30;79.50;;;;;;5073814;28;20453;-83
2022/07/18 05:53:53;;;;;;;1.03;0.93;;;18.40;79.30;;;;;;5073532;28;20979;-83
2022/07/18 05:56:19;;;;;;;1.07;0.80;;;18.50;79.10;;;;;;5073698;28;20902;-83
2022/07/18 05:58:46;;;;;;;0.50;0.50;;;18.70;79.10;;;;;;5073704;28;20453;-83
2022/07/18 06:01:16;;;;;;;0.60;0.60;;;18.80;78.70;;;;;;5073681;28;20452;-83
2022/07/18 06:03:43;;;;;;;0.50;0.50;;;18.90;78.50;;;;;;5073341;28;20495;-83
2022/07/18 06:06:10;;;;;;;0.90;0.90;;;19.00;78.50;;;;;;5073610;28;20446;-83
2022/07/18 06:08:36;;;;;;;1.67;1.00;;;19.20;78.00;;;;;;5073484;28;20480;-82
2022/07/18 06:11:06;;;;;;;0.70;0.70;;;19.40;77.20;;;;;;5073595;28;20527;-82
2022/07/18 06:13:33;;;;;;;8.73;1.00;;;19.60;76.40;;;;;;5073448;28;20468;-83
2022/07/18 06:16:00;;;;;;;0.50;0.50;;;19.70;75.70;;;;;;5073526;28;20447;-82
2022/07/18 06:18:26;;;;;;;1.57;0.60;;;19.90;75.00;;;;;;5073448;28;20464;-82
2022/07/18 06:20:53;;;;;;;4.50;0.67;;;20.10;74.80;;;;;;5073467;28;20451;-82
2022/07/18 06:23:20;;;;;;;0.50;0.40;;;20.30;74.70;;;;;;5073149;28;20948;-82
2022/07/18 06:25:46;;;;;;;0.60;0.60;;;20.40;74.90;;;;;;5073485;28;20809;-82
2022/07/18 06:28:15;;;;;;;1.40;0.60;;;20.60;73.70;;;;;;5073282;28;20468;-83
2022/07/18 06:30:41;;;;;;;0.73;0.70;;;20.90;73.60;;;;;;5073377;28;20440;-83
2022/07/18 06:33:08;;;;;;;1.77;0.50;;;21.10;72.70;;;;;;5073073;28;20916;-83
2022/07/18 06:35:35;;;;;;;0.80;0.53;;;21.20;71.80;;;;;;5073627;28;20449;-83
2022/07/18 06:38:01;;;;;;;0.80;0.80;;;21.50;71.50;;;;;;5072781;28;20487;-83
2022/07/18 06:40:28;;;;;;;0.50;0.50;;;21.70;71.50;;;;;;5073318;28;20519;-83
2022/07/18 06:42:55;;;;;;;0.60;0.60;;;21.90;69.30;;;;;;5073210;28;20456;-83
2022/07/18 06:45:24;;;;;;;0.67;0.63;;;22.20;68.70;;;;;;5073004;28;20908;-82
2022/07/18 06:47:51;;;;;;;0.70;0.70;;;22.40;67.70;;;;;;5072816;28;20221;-83
2022/07/18 06:50:18;;;;;;;1.03;0.47;;;22.50;67.60;;;;;;5072777;28;20728;-83
2022/07/18 06:52:45;;;;;;;0.82;0.70;;;22.70;66.30;;;;;;5073182;28;20190;-82
2022/07/18 06:55:13;;;;;;;0.60;0.60;;;23.00;65.80;;;;;;5073132;28;20201;-83
2022/07/18 06:57:41;;;;;;;0.45;0.45;;;23.30;66.20;;;;;;5073026;28;20202;-82
2022/07/18 07:00:10;;;;;;;0.60;0.60;;;23.40;65.70;;;;;;5073136;28;20202;-83
2022/07/18 07:02:44;;;;;;;2.47;0.60;;;23.60;65.40;;;;;;5073030;28;20242;-83
2022/07/18 07:05:12;;;;;;;0.50;0.50;;;23.80;65.10;;;;;;5073060;28;20285;-83
2022/07/18 07:07:38;;;;;;;0.50;0.50;;;23.90;64.90;;;;;;5072934;28;20202;-83
2022/07/18 07:10:06;;;;;;;0.60;0.60;;;24.10;62.80;;;;;;5072595;28;20701;-83
2022/07/18 07:12:39;;;;;;;0.80;0.77;;;24.30;62.50;;;;;;5072963;28;20209;-83
2022/07/18 07:15:07;;;;;;;0.98;0.60;;;24.40;63.20;;;;;;5074639;28;20190;-83
2022/07/18 07:17:34;;;;;;;0.80;0.77;;;24.60;62.40;;;;;;5076695;28;20206;-83
2022/07/18 07:20:03;;;;;;;3.22;0.80;;;24.70;59.80;;;;;;5076391;28;20580;-83
2022/07/18 07:22:29;;;;;;;0.80;0.80;;;24.80;60.80;;;;;;5076673;28;20198;-83
2022/07/18 07:24:56;;;;;;;1.95;0.60;;;24.90;59.50;;;;;;5076254;28;20209;-83
2022/07/18 07:27:23;;;;;;;1.00;0.90;;;24.90;60.10;;;;;;5076142;28;20213;-83
2022/07/18 07:29:50;;;;;;;1.60;1.00;;;25.00;59.10;;;;;;5076446;28;20222;-82
2022/07/18 07:32:16;;;;;;;1.50;0.60;;;25.20;59.90;;;;;;5076134;28;20669;-82
2022/07/18 07:34:43;;;;;;;0.50;0.50;;;25.30;58.80;;;;;;5076388;28;20209;-82
2022/07/18 07:37:11;;;;;;;1.52;0.80;;;25.40;58.00;;;;;;5076191;28;20238;-83
2022/07/18 07:39:38;;;;;;;0.90;0.80;;;25.60;57.70;;;;;;5076028;28;20709;-83
2022/07/18 07:42:05;;;;;;;0.70;0.70;;;25.60;57.80;;;;;;5076273;28;20209;-83
2022/07/18 07:44:31;;;;;;;1.27;0.77;;;25.70;59.00;;;;;;5076272;28;20574;-83
2022/07/18 07:46:59;;;;;;;1.10;0.82;;;25.90;57.60;;;;;;5075980;28;20194;-83
2022/07/18 07:49:26;;;;;;;0.60;0.60;;;26.20;56.70;;;;;;5076010;28;20230;-83
2022/07/18 07:51:52;;;;;;;0.60;0.60;;;26.60;55.20;;;;;;5076138;28;20197;-84
2022/07/18 07:54:21;;;;;;;0.65;0.60;;;26.90;54.40;;;;;;5076118;28;20667;-83
2022/07/18 07:56:47;;;;;;;0.70;0.60;;;27.40;55.00;;;;;;5076067;28;20205;-83
2022/07/18 07:59:14;;;;;;;0.60;0.60;;;27.70;54.20;;;;;;5075683;28;20700;-84
2022/07/18 08:01:41;;;;;;;0.73;0.73;;;28.30;53.50;;;;;;5075936;28;20213;-84
2022/07/18 08:04:07;;;;;;;1.67;0.77;;;28.40;52.80;;;;;;5075630;28;20704;-84
2022/07/18 08:06:34;;;;;;;0.70;0.70;;;28.60;52.70;;;;;;5075910;28;20213;-83
2022/07/18 08:09:01;;;;;;;1.58;0.70;;;29.00;52.10;;;;;;5075683;28;20607;-83
2022/07/18 08:11:29;;;;;;;0.85;0.85;;;29.20;51.70;;;;;;5075589;28;20209;-84
2022/07/18 08:13:56;;;;;;;0.63;0.63;;;29.40;50.80;;;;;;5075759;28;20202;-84
2022/07/18 08:16:23;;;;;;;1.15;0.85;;;29.60;49.70;;;;;;5075353;28;20210;-84
2022/07/18 08:18:50;;;;;;;0.80;0.80;;;29.60;49.60;;;;;;5075305;28;20718;-84
2022/07/18 08:21:17;;;;;;;2.53;0.77;;;29.60;49.50;;;;;;5075612;28;20188;-83
2022/07/18 08:23:44;;;;;;;0.60;0.60;;;29.40;49.70;;;;;;5075578;28;20207;-83
2022/07/18 08:26:11;;;;;;;1.20;0.93;;;29.30;50.70;;;;;;5075308;28;20211;-84
2022/07/18 08:28:39;;;;;;;1.27;0.85;;;29.30;50.70;;;;;;5075127;28;20229;-83
2022/07/18 08:31:06;;;;;;;0.75;0.75;;;29.30;50.10;;;;;;5075363;28;20223;-84
2022/07/18 08:33:33;;;;;;;0.88;0.88;;;29.10;50.40;;;;;;5075330;28;20205;-83
2022/07/18 08:36:00;;;;;;;0.80;0.80;;;29.00;49.70;;;;;;5075332;28;20251;-83
2022/07/18 08:38:26;;;;;;;0.70;0.60;;;29.00;50.20;;;;;;5074604;28;20718;-83
2022/07/18 08:40:54;;;;;;;0.70;0.70;;;29.10;50.10;;;;;;5075203;28;20203;-83
2022/07/18 08:43:21;;;;;;;0.70;0.70;;;29.20;50.20;;;;;;5075175;28;20291;-83
2022/07/18 08:45:49;;;;;;;0.80;0.80;;;29.20;50.10;;;;;;5074793;28;20679;-84
2022/07/18 08:48:17;;;;;;;1.15;0.95;;;29.20;49.20;;;;;;5074995;28;20232;-83
2022/07/18 08:50:45;;;;;;;1.23;0.98;;;29.30;49.30;;;;;;5074878;28;20226;-83
2022/07/18 08:53:12;;;;;;;0.85;0.80;;;29.20;47.50;;;;;;5074977;28;20202;-83
2022/07/18 08:55:39;;;;;;;0.82;0.82;;;29.20;47.80;;;;;;5074885;28;20235;-83
2022/07/18 08:58:06;;;;;;;0.75;0.70;;;29.30;47.80;;;;;;5074790;28;20228;-83
2022/07/18 09:00:35;;;;;;;0.68;0.60;;;29.30;47.20;;;;;;5074807;28;20562;-84
2022/07/18 09:03:04;;;;;;;0.93;0.60;;;29.40;47.30;;;;;;5074414;28;20559;-83
2022/07/18 09:05:33;;;;;;;0.73;0.73;;;29.50;47.50;;;;;;5074346;28;20206;-83
2022/07/18 09:08:09;;;;;;;0.90;0.80;;;29.70;47.90;;;;;;5074592;28;20229;-83
2022/07/18 09:10:42;;;;;;;1.83;0.85;;;29.80;48.00;;;;;;5074537;28;20205;-82
2022/07/18 09:13:09;;;;;;;12.38;1.50;;;29.90;47.50;;;;;;5074289;28;20186;-84
2022/07/18 09:15:35;;;;;;;1.25;0.70;;;29.80;47.80;;;;;;5074504;28;20198;-83
2022/07/18 09:18:03;;;;;;;0.60;0.60;;;29.90;47.50;;;;;;5074404;28;20233;-84
2022/07/18 09:20:30;;;;;;;1.55;1.00;;;30.00;47.50;;;;;;5074430;28;20198;-84
2022/07/18 09:22:57;;;;;;;0.88;0.80;;;30.30;46.20;;;;;;5074031;28;20199;-84
2022/07/18 09:25:24;;;;;;;0.73;0.73;;;30.60;45.90;;;;;;5074357;28;20201;-84
2022/07/18 09:27:53;;;;;;;1.67;1.10;;;30.70;44.90;;;;;;5073888;28;20233;-84
2022/07/18 09:30:24;;;;;;;0.80;0.80;;;30.80;44.60;;;;;;5074166;28;20230;-84
2022/07/18 09:32:52;;;;;;;0.90;0.90;;;30.90;44.40;;;;;;5074210;28;20185;-84
2022/07/18 09:35:23;;;;;;;1.65;1.00;;;30.90;43.80;;;;;;5073809;28;20685;-85
2022/07/18 09:37:55;;;;;;;0.98;0.90;;;30.90;43.70;;;;;;5073158;28;20245;-84
2022/07/18 09:40:25;;;;;;;1.00;0.90;;;30.70;44.30;;;;;;5074059;28;20246;-84
2022/07/18 09:42:54;;;;;;;0.70;0.70;;;30.50;44.60;;;;;;5073904;28;20220;-84
2022/07/18 09:45:26;;;;;;;0.90;0.90;;;30.50;45.20;;;;;;5073749;28;20201;-84
2022/07/18 09:47:55;;;;;;;0.90;0.90;;;30.40;46.00;;;;;;5073912;28;20232;-84
2022/07/18 09:50:26;;;;;;;0.90;0.90;;;30.50;44.80;;;;;;5073618;28;20248;-84
2022/07/18 09:53:13;;;;;;;0.70;0.60;;;30.70;43.60;;;;;;5073914;28;20197;-84
2022/07/18 09:55:49;;;;;;;0.70;0.70;;;31.10;43.00;;;;;;5073831;28;20201;-83
2022/07/18 09:58:18;;;;;;;0.80;0.80;;;31.30;43.30;;;;;;5073675;28;20221;-83
2022/07/18 10:00:46;;;;;;;0.70;0.70;;;31.20;42.50;;;;;;5073674;28;20253;-83
2022/07/18 10:03:13;;;;;;;0.90;0.90;;;31.00;42.50;;;;;;5073688;28;20546;-82
2022/07/18 10:05:44;;;;;;;0.70;0.70;;;30.90;43.00;;;;;;5073707;28;20182;-83
2022/07/18 10:08:13;;;;;;;0.60;0.60;;;30.80;43.40;;;;;;5073274;28;20739;-83
2022/07/18 10:10:41;;;;;;;0.80;0.80;;;30.70;43.50;;;;;;5073480;28;20217;-83
2022/07/18 10:13:09;;;;;;;0.70;0.70;;;30.70;43.60;;;;;;5073559;28;20205;-82
2022/07/18 10:15:38;;;;;;;1.20;0.70;;;30.50;43.40;;;;;;5073503;28;20213;-83
2022/07/18 10:18:07;;;;;;;0.90;0.70;;;30.60;45.40;;;;;;5073440;28;20237;-83
2022/07/18 10:20:37;;;;;;;0.60;0.60;;;30.80;43.60;;;;;;5073409;28;20228;-83
2022/07/18 10:23:14;;;;;;;0.82;0.82;;;30.80;43.30;;;;;;5073088;28;20696;-82
2022/07/18 10:25:40;;;;;;;0.65;0.65;;;30.70;44.60;;;;;;5073612;28;20194;-82
2022/07/18 10:28:10;;;;;;;0.73;0.73;;;30.70;44.20;;;;;;5073338;28;20226;-83
2022/07/18 10:30:45;;;;;;;0.50;0.50;;;30.70;45.60;;;;;;5072954;28;20218;-83
2022/07/18 10:33:38;;;;;;;0.60;0.60;;;30.80;42.00;;;;;;5073170;28;20663;-83
2022/07/18 10:36:07;;;;;;;0.73;0.70;;;31.00;42.10;;;;;;5073265;28;20206;-83
2022/07/18 10:38:35;;;;;;;4.72;0.70;;;31.10;41.50;;;;;;5072752;28;20241;-83
2022/07/18 10:41:05;;;;;;;0.70;0.70;;;31.10;42.40;;;;;;5072974;28;20213;-83
2022/07/18 10:43:33;;;;;;;0.60;0.60;;;31.10;42.80;;;;;;5073267;28;20206;-83
2022/07/18 10:46:01;;;;;;;0.57;0.57;;;30.90;44.20;;;;;;5073227;28;20205;-82
2022/07/18 10:48:54;;;;;;;0.77;0.68;;;31.00;42.00;;;;;;5073137;28;20229;-83
2022/07/18 10:51:28;;;;;;;0.60;0.60;;;31.00;42.20;;;;;;5076128;28;20233;-83
2022/07/18 10:54:14;;;;;;;1.15;0.60;;;31.10;41.80;;;;;;5076980;28;20681;-83
2022/07/18 10:57:09;;;;;;;0.82;0.60;;;31.00;41.70;;;;;;5077236;28;20187;-83
2022/07/18 10:59:38;;;;;;;0.85;0.85;;;31.00;42.40;;;;;;5077075;28;20251;-83
2022/07/18 11:02:07;;;;;;;0.70;0.70;;;31.10;42.40;;;;;;5076791;28;20662;-83
2022/07/18 11:04:37;;;;;;;0.65;0.65;;;31.20;42.80;;;;;;5077866;28;20259;-82
2022/07/18 11:07:07;;;;;;;0.70;0.70;;;31.40;42.30;;;;;;5076990;28;20256;-82
2022/07/18 11:09:38;;;;;;;0.88;0.88;;;32.00;41.80;;;;;;5077195;28;20226;-83
2022/07/18 11:12:23;;;;;;;0.93;0.70;;;32.60;40.60;;;;;;5076894;28;20281;-83
2022/07/18 11:15:11;;;;;;;0.70;0.70;;;33.10;41.10;;;;;;5076619;28;20190;-83
2022/07/18 11:18:01;;;;;;;0.73;0.73;;;33.10;40.10;;;;;;5077611;28;20517;-83
2022/07/18 11:20:37;;;;;;;0.77;0.70;;;32.90;40.70;;;;;;5076749;28;20198;-83
2022/07/18 11:23:06;;;;;;;0.80;0.80;;;32.60;40.40;;;;;;5076384;28;20188;-83
2022/07/18 11:25:34;;;;;;;0.73;0.73;;;32.30;41.30;;;;;;5076319;28;20714;-83
2022/07/18 11:28:00;;;;;;;0.65;0.65;;;32.00;41.60;;;;;;5076363;28;20228;-83
2022/07/18 11:30:27;;;;;;;0.60;0.60;;;31.80;41.40;;;;;;5076507;28;20224;-83
2022/07/18 11:32:54;;;;;;;0.60;0.60;;;31.70;41.60;;;;;;5076494;28;20210;-83
2022/07/18 11:35:25;;;;;;;0.70;0.70;;;31.60;41.70;;;;;;5076202;28;20236;-83
2022/07/18 11:37:55;;;;;;;1.48;0.80;;;31.40;41.60;;;;;;5075982;28;20243;-83
2022/07/18 11:40:23;;;;;;;0.90;0.90;;;31.50;41.60;;;;;;5076389;28;20248;-83
2022/07/18 11:42:51;;;;;;;1.08;0.90;;;31.40;41.50;;;;;;5076327;28;20241;-83
2022/07/18 11:45:18;;;;;;;0.68;0.68;;;31.20;42.40;;;;;;5075962;28;20683;-83
2022/07/18 11:47:50;;;;;;;1.85;0.70;;;31.00;42.30;;;;;;5075890;28;20725;-83
2022/07/18 11:50:18;;;;;;;0.63;0.63;;;31.10;42.10;;;;;;5076947;28;20317;-83
2022/07/18 11:52:46;;;;;;;0.60;0.60;;;31.00;42.90;;;;;;5075857;28;20673;-83
2022/07/18 11:55:13;;;;;;;0.60;0.60;;;31.00;42.30;;;;;;5076172;28;20198;-82
2022/07/18 11:57:41;;;;;;;0.70;0.70;;;31.00;41.80;;;;;;5075995;28;20211;-83
2022/07/18 12:00:20;;;;;;;1.02;0.90;;;31.10;43.50;;;;;;5076008;28;20211;-83
2022/07/18 12:02:47;;;;;;;1.05;0.90;;;31.10;42.20;;;;;;5075702;28;20201;-83
2022/07/18 12:05:14;;;;;;;0.63;0.63;;;31.30;42.00;;;;;;5075910;28;20585;-82
2022/07/18 12:07:41;;;;;;;0.90;0.80;;;31.20;42.50;;;;;;5075518;28;20692;-83
2022/07/18 12:10:18;;;;;;;0.70;0.70;;;31.20;41.40;;;;;;5075780;28;20209;-83
2022/07/18 12:12:45;;;;;;;0.70;0.70;;;31.30;41.60;;;;;;5075743;28;20201;-81
2022/07/18 12:15:12;;;;;;;0.60;0.60;;;31.20;41.40;;;;;;5075725;28;20212;-83
2022/07/18 12:17:47;;;;;;;1.00;0.90;;;31.20;41.30;;;;;;5075624;28;20253;-83
2022/07/18 12:20:16;;;;;;;0.55;0.55;;;31.10;41.70;;;;;;5075384;28;20651;-83
2022/07/18 12:23:07;;;;;;;0.63;0.63;;;31.00;41.50;;;;;;5075615;28;20214;-83
2022/07/18 12:25:56;;;;;;;0.60;0.60;;;31.00;43.90;;;;;;5075212;28;20669;-83
2022/07/18 12:28:26;;;;;;;0.80;0.80;;;30.90;42.80;;;;;;5075163;28;20632;-82
2022/07/18 12:30:53;;;;;;;0.65;0.65;;;30.80;43.60;;;;;;5075073;28;20217;-83
2022/07/18 12:33:21;;;;;;;0.70;0.70;;;30.70;41.90;;;;;;5075439;28;20205;-83
2022/07/18 12:35:56;;;;;;;0.70;0.70;;;30.60;41.80;;;;;;5075066;28;20679;-83
2022/07/18 12:38:23;;;;;;;0.80;0.80;;;30.50;42.60;;;;;;5074939;28;20241;-82
2022/07/18 12:40:52;;;;;;;0.63;0.63;;;30.40;42.60;;;;;;5075321;28;20209;-83
2022/07/18 12:43:25;;;;;;;1.80;1.40;;;30.60;42.00;;;;;;5075229;28;20202;-82
2022/07/18 12:45:53;;;;;;;1.00;0.77;;;30.60;41.50;;;;;;5075280;28;20190;-83
2022/07/18 12:48:22;;;;;;;1.60;0.80;;;30.60;41.10;;;;;;5075141;28;20236;-83
2022/07/18 12:50:58;;;;;;;0.75;0.75;;;30.50;41.00;;;;;;5074738;28;20222;-83
2022/07/18 12:53:25;;;;;;;0.70;0.70;;;30.40;41.00;;;;;;5075095;28;20193;-82
2022/07/18 12:55:52;;;;;;;0.73;0.70;;;30.40;41.80;;;;;;5074975;28;20201;-83
2022/07/18 12:58:19;;;;;;;0.60;0.60;;;30.30;41.30;;;;;;5074839;28;20232;-82